Seaexpressii — HO4619 — position and weather

sailwx.info

Track history (hours):
 
Tides and Currents Weather Stations Pressure Air Temp Water Temp Dewpoint Dewpoint Depression Visibility Wind Speed Wind Dir Waves Ship Positions

Seaexpressii

Last reported at 2017-Apr-29 23:00 UTC. Time now 2017-Apr-29 23:28 UTC.
Position N 26°04' W 080°08'.

Length 37 m; draft 2.2 m.

Type: Ship (hazmat cat C). MMSI: 356449000.

Date/timePositionNaut miles runAvg speedWind from/ knotsBaromVisibWave heightAir tempDewpointWater temp
2017-Apr-29 23:00N 26°04' W 080°08'0 0.0
2017-Apr-29 22:30N 26°04' W 080°08'0 0.0
2017-Apr-29 22:00N 26°04' W 080°08'0 0.0
2017-Apr-29 21:30N 26°04' W 080°08'0 0.0
2017-Apr-29 21:00N 26°04' W 080°08'0 0.0
2017-Apr-29 20:30N 26°04' W 080°08'0 0.0
2017-Apr-29 20:00N 26°04' W 080°08'0 0.0
2017-Apr-29 19:30N 26°04' W 080°08'0 0.0
2017-Apr-29 19:00N 26°04' W 080°08'0 0.1
2017-Apr-29 18:30N 26°04' W 080°08'2 3.5
2017-Apr-29 18:00N 26°05' W 080°07'5 9.1
2017-Apr-29 17:31N 26°04' W 080°02'611.5
2017-Apr-29 17:01N 26°03' W 079°56'611.2
2017-Apr-29 16:30N 26°01' W 079°50'611.8
2017-Apr-29 16:00N 25°59' W 079°43'22 0.5
2017-Apr-27 23:01N 25°53' W 079°20'010.3
2017-Apr-27 23:00N 25°53' W 079°20'510.3
2017-Apr-27 22:30N 25°54' W 079°25'12 9.4
2017-Apr-27 21:16N 25°58' W 079°38'2 9.0
2017-Apr-27 21:00N 25°58' W 079°40'4 8.7
2017-Apr-27 20:31N 25°60' W 079°45'4 8.4
2017-Apr-27 20:00N 26°01' W 079°49'4 8.3
2017-Apr-27 19:30N 26°02' W 079°54'4 8.2
2017-Apr-27 19:00N 26°03' W 079°58'4 8.3
2017-Apr-27 18:30N 26°05' W 080°03'4 7.7
2017-Apr-27 18:00N 26°05' W 080°07'2 3.4
2017-Apr-27 17:30N 26°04' W 080°08'0 0.0
2017-Apr-27 17:01N 26°04' W 080°08'0 0.1
2017-Apr-27 16:30N 26°04' W 080°08'0 0.0
2017-Apr-27 16:00N 26°04' W 080°08'0 0.0
2017-Apr-27 15:30N 26°04' W 080°08'0 0.0
2017-Apr-27 15:00N 26°04' W 080°08'0 0.1
2017-Apr-27 14:00N 26°04' W 080°08'0 0.0
2017-Apr-27 13:30N 26°04' W 080°08'0 0.0
2017-Apr-27 13:01N 26°04' W 080°08'0 0.0
2017-Apr-27 12:31N 26°04' W 080°08'0 0.0
2017-Apr-27 12:00N 26°04' W 080°08'0 0.0
2017-Apr-27 11:31N 26°04' W 080°08'0 0.0
2017-Apr-27 11:00N 26°04' W 080°08'0 0.0
2017-Apr-27 10:30N 26°04' W 080°08'0 0.0
2017-Apr-27 10:00N 26°04' W 080°08'0 0.0
2017-Apr-27 09:30N 26°04' W 080°08'0 0.0
2017-Apr-27 09:01N 26°04' W 080°08'2 3.1
2017-Apr-27 08:30N 26°05' W 080°07'4 7.4
2017-Apr-27 08:01N 26°05' W 080°03'5 9.3
2017-Apr-27 07:31N 26°04' W 079°58'4 8.2
2017-Apr-27 07:00N 26°02' W 079°53'4 8.2
2017-Apr-27 06:30N 26°01' W 079°49'4 7.9
2017-Apr-27 06:00N 25°60' W 079°45'4 7.9
2017-Apr-27 05:29N 25°59' W 079°40'4 8.2
2017-Apr-27 05:00N 25°58' W 079°36'  
2017-Apr-24 05:52N 25°56' W 079°32'4 9.9
2017-Apr-24 05:28N 25°58' W 079°36'4 9.4
2017-Apr-24 05:00N 25°59' W 079°41'5 9.2
2017-Apr-24 04:25N 26°00' W 079°47'4 8.9
2017-Apr-24 03:56N 26°02' W 079°51'5 8.4
2017-Apr-24 03:23N 26°03' W 079°56'3 8.5
2017-Apr-24 03:00N 26°04' W 079°60'5 9.5
2017-Apr-24 02:30N 26°05' W 080°05'2 4.3
2017-Apr-24 02:00N 26°04' W 080°07'1 2.3
2017-Apr-24 01:30N 26°04' W 080°08'0 0.1
2017-Apr-24 01:00N 26°04' W 080°08'0 0.0
2017-Apr-24 00:29N 26°04' W 080°08'0 0.0
2017-Apr-24 00:00N 26°04' W 080°08'0 0.0
2017-Apr-23 23:30N 26°04' W 080°08'0 0.0
2017-Apr-23 23:00N 26°04' W 080°08'0 0.1
2017-Apr-23 22:31N 26°04' W 080°08'0 0.0
2017-Apr-23 21:00N 26°04' W 080°08'0 0.0
2017-Apr-23 19:27N 26°04' W 080°08'1 1.4
2017-Apr-23 18:50N 26°04' W 080°07'2 5.8
2017-Apr-23 18:29N 26°06' W 080°06'610.1
2017-Apr-23 17:56N 26°03' W 079°60'510.4
2017-Apr-23 17:30N 26°01' W 079°56'611.0
2017-Apr-23 16:59N 25°58' W 079°50'611.4
2017-Apr-23 16:30N 25°55' W 079°45'711.2
2017-Apr-23 15:54N 25°52' W 079°38'9 1.4
2017-Apr-23 09:30N 25°48' W 079°30'4 8.5
2017-Apr-23 08:59N 25°50' W 079°34'4 7.8
2017-Apr-23 08:30N 25°52' W 079°38'4 7.8
2017-Apr-23 08:00N 25°53' W 079°41'4 7.7
2017-Apr-23 07:30N 25°55' W 079°45'4 7.4
2017-Apr-23 07:00N 25°57' W 079°49'3 7.0
2017-Apr-23 06:30N 25°59' W 079°52'4 7.0
2017-Apr-23 06:01N 26°01' W 079°55'4 7.0
2017-Apr-23 05:31N 26°02' W 079°59'4 7.5
2017-Apr-23 05:00N 26°04' W 080°02'4 8.1
2017-Apr-23 04:30N 26°06' W 080°07'2 4.1
2017-Apr-23 04:00N 26°04' W 080°07'0 0.4
2017-Apr-23 03:30N 26°04' W 080°07'0 0.7
2017-Apr-23 03:00N 26°04' W 080°08'0 0.3
2017-Apr-23 02:30N 26°04' W 080°08'0 0.0
2017-Apr-23 02:00N 26°04' W 080°08'0 0.0
2017-Apr-23 01:30N 26°04' W 080°08'0 0.0
2017-Apr-23 01:00N 26°04' W 080°08'0 0.0
2017-Apr-23 00:30N 26°04' W 080°08'0 0.0
2017-Apr-23 00:00N 26°04' W 080°08'0 0.0
2017-Apr-22 23:30N 26°04' W 080°08'0 0.0
2017-Apr-22 23:00N 26°04' W 080°08'0 0.0
2017-Apr-22 22:30N 26°04' W 080°08'0 0.0
2017-Apr-22 22:00N 26°04' W 080°08'0 0.0
2017-Apr-22 21:31N 26°04' W 080°08'0 0.0
2017-Apr-22 21:01N 26°04' W 080°08'0 0.0
2017-Apr-22 20:30N 26°04' W 080°08'2 3.2
2017-Apr-22 20:01N 26°05' W 080°07'4 8.2
2017-Apr-22 19:30N 26°04' W 080°02'611.6
2017-Apr-22 19:00N 26°01' W 079°57'611.2
2017-Apr-22 18:30N 25°59' W 079°51'611.3
2017-Apr-22 18:00N 25°56' W 079°46'611.4
2017-Apr-22 17:31N 25°54' W 079°40'10 1.0
2017-Apr-22 07:43N 25°48' W 079°31'2 6.0
2017-Apr-22 07:18N 25°49' W 079°34'2 6.1
2017-Apr-22 06:57N 25°51' W 079°36'3 6.4
2017-Apr-22 06:30N 25°52' W 079°38'3 6.6
2017-Apr-22 06:00N 25°54' W 079°42'3 6.3
2017-Apr-22 05:30N 25°55' W 079°45'3 6.0
2017-Apr-22 05:00N 25°57' W 079°47'3 5.5
2017-Apr-22 04:29N 25°58' W 079°50'3 5.7
2017-Apr-22 04:00N 25°59' W 079°53'3 5.7
2017-Apr-22 03:30N 26°01' W 079°56'3 5.9
2017-Apr-22 03:01N 26°02' W 079°59'3 6.0
2017-Apr-22 02:31N 26°04' W 080°01'3 5.7
2017-Apr-22 02:01N 26°05' W 080°04'2 4.7
2017-Apr-22 01:30N 26°04' W 080°07'1 2.4
2017-Apr-22 01:00N 26°04' W 080°08'0 0.0
2017-Apr-22 00:30N 26°04' W 080°08'0 0.0
2017-Apr-22 00:00N 26°04' W 080°08'0 0.0
2017-Apr-21 23:30N 26°04' W 080°08'0 0.0
2017-Apr-21 23:00N 26°04' W 080°08'0 0.0
2017-Apr-21 22:30N 26°04' W 080°08'0 0.0
2017-Apr-21 22:00N 26°04' W 080°08'0 0.0
2017-Apr-21 21:30N 26°04' W 080°08'0 0.0
2017-Apr-21 21:00N 26°04' W 080°08'0 0.0
2017-Apr-21 20:31N 26°04' W 080°08'1 2.0
2017-Apr-21 20:00N 26°04' W 080°07'3 5.9
2017-Apr-21 19:30N 26°05' W 080°04'611.2
2017-Apr-21 19:00N 26°02' W 079°58'510.9
2017-Apr-21 18:30N 26°00' W 079°52'611.6
2017-Apr-21 18:01N 25°57' W 079°47'611.4
2017-Apr-21 17:30N 25°54' W 079°42'611.1
2017-Apr-21 16:59N 25°52' W 079°36'3 0.4
2017-Apr-21 08:14N 25°49' W 079°33'2 8.4
2017-Apr-21 07:58N 25°50' W 079°35'4 8.4
2017-Apr-21 07:30N 25°52' W 079°39'4 8.4
2017-Apr-21 07:00N 25°54' W 079°43'4 8.0
2017-Apr-21 06:30N 25°56' W 079°47'4 7.8
2017-Apr-21 06:00N 25°58' W 079°51'4 7.6
2017-Apr-21 05:30N 25°60' W 079°54'4 7.2
2017-Apr-21 05:00N 26°02' W 079°58'4 7.0
2017-Apr-21 04:30N 26°04' W 080°01'4 8.2
2017-Apr-21 04:00N 26°05' W 080°05'3 5.5
2017-Apr-21 03:30N 26°04' W 080°07'0 0.6
2017-Apr-21 03:00N 26°04' W 080°08'0 0.0
2017-Apr-21 02:30N 26°04' W 080°08'0 0.0
2017-Apr-21 02:00N 26°04' W 080°08'0 0.0
2017-Apr-21 01:30N 26°04' W 080°08'0 0.0
2017-Apr-21 01:00N 26°04' W 080°08'0 0.0
2017-Apr-21 00:30N 26°04' W 080°08'0 0.0
2017-Apr-21 00:01N 26°04' W 080°08'1 2.2
2017-Apr-20 23:30N 26°04' W 080°07'3 5.6
2017-Apr-20 23:01N 26°04' W 080°04'510.6
2017-Apr-20 22:30N 26°02' W 079°58'611.0
2017-Apr-20 22:00N 25°59' W 079°53'510.7
2017-Apr-20 21:30N 25°57' W 079°48'510.5
2017-Apr-20 21:00N 25°55' W 079°42'611.7
2017-Apr-20 20:30N 25°52' W 079°37'10 0.9
2017-Apr-20 08:57N 25°43' W 079°32'4 8.5
2017-Apr-20 08:30N 25°46' W 079°36'4 8.2
2017-Apr-20 08:00N 25°48' W 079°39'4 7.7
2017-Apr-20 07:30N 25°50' W 079°43'4 7.4
2017-Apr-20 07:00N 25°53' W 079°46'4 7.1
2017-Apr-20 06:30N 25°55' W 079°49'4 7.1
2017-Apr-20 06:00N 25°57' W 079°52'3 6.8
2017-Apr-20 05:30N 25°59' W 079°55'3 7.0
2017-Apr-20 05:00N 26°01' W 079°58'4 8.2
2017-Apr-20 04:31N 26°03' W 080°02'4 8.0
2017-Apr-20 04:01N 26°06' W 080°06'2 3.9
2017-Apr-20 03:30N 26°04' W 080°07'1 1.8
2017-Apr-20 03:00N 26°04' W 080°08'0 0.0
2017-Apr-20 02:31N 26°04' W 080°08'0 0.0
2017-Apr-20 02:01N 26°04' W 080°08'0 0.0
2017-Apr-20 01:31N 26°04' W 080°08'0 0.0
2017-Apr-20 01:01N 26°04' W 080°08'0 0.0
2017-Apr-20 00:30N 26°04' W 080°08'0 0.3
2017-Apr-20 00:00N 26°04' W 080°08'3 5.2
2017-Apr-19 23:30N 26°06' W 080°06'5 9.8
2017-Apr-19 23:00N 26°04' W 080°01'  
Track history (hours):
 
Tides and Currents Weather Stations Pressure Air Temp Water Temp Dewpoint Dewpoint Depression Visibility Wind Speed Wind Dir Waves Ship Positions

Seaexpressii

Last reported at 2017-Apr-29 23:00 UTC. Time now 2017-Apr-29 23:28 UTC.
Position N 26°04' W 080°08'.

Length 37 m; draft 2.2 m.

Type: Ship (hazmat cat C). MMSI: 356449000.

Date/timePositionNaut miles runAvg speedWind from/ knotsBaromVisibWave heightAir tempDewpointWater temp
2017-Apr-29 23:00N 26°04' W 080°08'0 0.0
2017-Apr-29 22:30N 26°04' W 080°08'0 0.0
2017-Apr-29 22:00N 26°04' W 080°08'0 0.0
2017-Apr-29 21:30N 26°04' W 080°08'0 0.0
2017-Apr-29 21:00N 26°04' W 080°08'0 0.0
2017-Apr-29 20:30N 26°04' W 080°08'0 0.0
2017-Apr-29 20:00N 26°04' W 080°08'0 0.0
2017-Apr-29 19:30N 26°04' W 080°08'0 0.0
2017-Apr-29 19:00N 26°04' W 080°08'0 0.1
2017-Apr-29 18:30N 26°04' W 080°08'2 3.5
2017-Apr-29 18:00N 26°05' W 080°07'5 9.1
2017-Apr-29 17:31N 26°04' W 080°02'611.5
2017-Apr-29 17:01N 26°03' W 079°56'611.2
2017-Apr-29 16:30N 26°01' W 079°50'611.8
2017-Apr-29 16:00N 25°59' W 079°43'22 0.5
2017-Apr-27 23:01N 25°53' W 079°20'010.3
2017-Apr-27 23:00N 25°53' W 079°20'510.3
2017-Apr-27 22:30N 25°54' W 079°25'12 9.4
2017-Apr-27 21:16N 25°58' W 079°38'2 9.0
2017-Apr-27 21:00N 25°58' W 079°40'4 8.7
2017-Apr-27 20:31N 25°60' W 079°45'4 8.4
2017-Apr-27 20:00N 26°01' W 079°49'4 8.3
2017-Apr-27 19:30N 26°02' W 079°54'4 8.2
2017-Apr-27 19:00N 26°03' W 079°58'4 8.3
2017-Apr-27 18:30N 26°05' W 080°03'4 7.7
2017-Apr-27 18:00N 26°05' W 080°07'2 3.4
2017-Apr-27 17:30N 26°04' W 080°08'0 0.0
2017-Apr-27 17:01N 26°04' W 080°08'0 0.1
2017-Apr-27 16:30N 26°04' W 080°08'0 0.0
2017-Apr-27 16:00N 26°04' W 080°08'0 0.0
2017-Apr-27 15:30N 26°04' W 080°08'0 0.0
2017-Apr-27 15:00N 26°04' W 080°08'0 0.1
2017-Apr-27 14:00N 26°04' W 080°08'0 0.0
2017-Apr-27 13:30N 26°04' W 080°08'0 0.0
2017-Apr-27 13:01N 26°04' W 080°08'0 0.0
2017-Apr-27 12:31N 26°04' W 080°08'0 0.0
2017-Apr-27 12:00N 26°04' W 080°08'0 0.0
2017-Apr-27 11:31N 26°04' W 080°08'0 0.0
2017-Apr-27 11:00N 26°04' W 080°08'0 0.0
2017-Apr-27 10:30N 26°04' W 080°08'0 0.0
2017-Apr-27 10:00N 26°04' W 080°08'0 0.0
2017-Apr-27 09:30N 26°04' W 080°08'0 0.0
2017-Apr-27 09:01N 26°04' W 080°08'2 3.1
2017-Apr-27 08:30N 26°05' W 080°07'4 7.4
2017-Apr-27 08:01N 26°05' W 080°03'5 9.3
2017-Apr-27 07:31N 26°04' W 079°58'4 8.2
2017-Apr-27 07:00N 26°02' W 079°53'4 8.2
2017-Apr-27 06:30N 26°01' W 079°49'4 7.9
2017-Apr-27 06:00N 25°60' W 079°45'4 7.9
2017-Apr-27 05:29N 25°59' W 079°40'4 8.2
2017-Apr-27 05:00N 25°58' W 079°36'  
2017-Apr-24 05:52N 25°56' W 079°32'4 9.9
2017-Apr-24 05:28N 25°58' W 079°36'4 9.4
2017-Apr-24 05:00N 25°59' W 079°41'5 9.2
2017-Apr-24 04:25N 26°00' W 079°47'4 8.9
2017-Apr-24 03:56N 26°02' W 079°51'5 8.4
2017-Apr-24 03:23N 26°03' W 079°56'3 8.5
2017-Apr-24 03:00N 26°04' W 079°60'5 9.5
2017-Apr-24 02:30N 26°05' W 080°05'2 4.3
2017-Apr-24 02:00N 26°04' W 080°07'1 2.3
2017-Apr-24 01:30N 26°04' W 080°08'0 0.1
2017-Apr-24 01:00N 26°04' W 080°08'0 0.0
2017-Apr-24 00:29N 26°04' W 080°08'0 0.0
2017-Apr-24 00:00N 26°04' W 080°08'0 0.0
2017-Apr-23 23:30N 26°04' W 080°08'0 0.0
2017-Apr-23 23:00N 26°04' W 080°08'0 0.1
2017-Apr-23 22:31N 26°04' W 080°08'0 0.0
2017-Apr-23 21:00N 26°04' W 080°08'0 0.0
2017-Apr-23 19:27N 26°04' W 080°08'1 1.4
2017-Apr-23 18:50N 26°04' W 080°07'2 5.8
2017-Apr-23 18:29N 26°06' W 080°06'610.1
2017-Apr-23 17:56N 26°03' W 079°60'510.4
2017-Apr-23 17:30N 26°01' W 079°56'611.0
2017-Apr-23 16:59N 25°58' W 079°50'611.4
2017-Apr-23 16:30N 25°55' W 079°45'711.2
2017-Apr-23 15:54N 25°52' W 079°38'9 1.4
2017-Apr-23 09:30N 25°48' W 079°30'4 8.5
2017-Apr-23 08:59N 25°50' W 079°34'4 7.8
2017-Apr-23 08:30N 25°52' W 079°38'4 7.8
2017-Apr-23 08:00N 25°53' W 079°41'4 7.7
2017-Apr-23 07:30N 25°55' W 079°45'4 7.4
2017-Apr-23 07:00N 25°57' W 079°49'3 7.0
2017-Apr-23 06:30N 25°59' W 079°52'4 7.0
2017-Apr-23 06:01N 26°01' W 079°55'4 7.0
2017-Apr-23 05:31N 26°02' W 079°59'4 7.5
2017-Apr-23 05:00N 26°04' W 080°02'4 8.1
2017-Apr-23 04:30N 26°06' W 080°07'2 4.1
2017-Apr-23 04:00N 26°04' W 080°07'0 0.4
2017-Apr-23 03:30N 26°04' W 080°07'0 0.7
2017-Apr-23 03:00N 26°04' W 080°08'0 0.3
2017-Apr-23 02:30N 26°04' W 080°08'0 0.0
2017-Apr-23 02:00N 26°04' W 080°08'0 0.0
2017-Apr-23 01:30N 26°04' W 080°08'0 0.0
2017-Apr-23 01:00N 26°04' W 080°08'0 0.0
2017-Apr-23 00:30N 26°04' W 080°08'0 0.0
2017-Apr-23 00:00N 26°04' W 080°08'0 0.0
2017-Apr-22 23:30N 26°04' W 080°08'0 0.0
2017-Apr-22 23:00N 26°04' W 080°08'0 0.0
2017-Apr-22 22:30N 26°04' W 080°08'0 0.0
2017-Apr-22 22:00N 26°04' W 080°08'0 0.0
2017-Apr-22 21:31N 26°04' W 080°08'0 0.0
2017-Apr-22 21:01N 26°04' W 080°08'0 0.0
2017-Apr-22 20:30N 26°04' W 080°08'2 3.2
2017-Apr-22 20:01N 26°05' W 080°07'4 8.2
2017-Apr-22 19:30N 26°04' W 080°02'611.6
2017-Apr-22 19:00N 26°01' W 079°57'611.2
2017-Apr-22 18:30N 25°59' W 079°51'611.3
2017-Apr-22 18:00N 25°56' W 079°46'611.4
2017-Apr-22 17:31N 25°54' W 079°40'10 1.0
2017-Apr-22 07:43N 25°48' W 079°31'2 6.0
2017-Apr-22 07:18N 25°49' W 079°34'2 6.1
2017-Apr-22 06:57N 25°51' W 079°36'3 6.4
2017-Apr-22 06:30N 25°52' W 079°38'3 6.6
2017-Apr-22 06:00N 25°54' W 079°42'3 6.3
2017-Apr-22 05:30N 25°55' W 079°45'3 6.0
2017-Apr-22 05:00N 25°57' W 079°47'3 5.5
2017-Apr-22 04:29N 25°58' W 079°50'3 5.7
2017-Apr-22 04:00N 25°59' W 079°53'3 5.7
2017-Apr-22 03:30N 26°01' W 079°56'3 5.9
2017-Apr-22 03:01N 26°02' W 079°59'3 6.0
2017-Apr-22 02:31N 26°04' W 080°01'3 5.7
2017-Apr-22 02:01N 26°05' W 080°04'2 4.7
2017-Apr-22 01:30N 26°04' W 080°07'1 2.4
2017-Apr-22 01:00N 26°04' W 080°08'0 0.0
2017-Apr-22 00:30N 26°04' W 080°08'0 0.0
2017-Apr-22 00:00N 26°04' W 080°08'0 0.0
2017-Apr-21 23:30N 26°04' W 080°08'0 0.0
2017-Apr-21 23:00N 26°04' W 080°08'0 0.0
2017-Apr-21 22:30N 26°04' W 080°08'0 0.0
2017-Apr-21 22:00N 26°04' W 080°08'0 0.0
2017-Apr-21 21:30N 26°04' W 080°08'0 0.0
2017-Apr-21 21:00N 26°04' W 080°08'0 0.0
2017-Apr-21 20:31N 26°04' W 080°08'1 2.0
2017-Apr-21 20:00N 26°04' W 080°07'3 5.9
2017-Apr-21 19:30N 26°05' W 080°04'611.2
2017-Apr-21 19:00N 26°02' W 079°58'510.9
2017-Apr-21 18:30N 26°00' W 079°52'611.6
2017-Apr-21 18:01N 25°57' W 079°47'611.4
2017-Apr-21 17:30N 25°54' W 079°42'611.1
2017-Apr-21 16:59N 25°52' W 079°36'3 0.4
2017-Apr-21 08:14N 25°49' W 079°33'2 8.4
2017-Apr-21 07:58N 25°50' W 079°35'4 8.4
2017-Apr-21 07:30N 25°52' W 079°39'4 8.4
2017-Apr-21 07:00N 25°54' W 079°43'4 8.0
2017-Apr-21 06:30N 25°56' W 079°47'4 7.8
2017-Apr-21 06:00N 25°58' W 079°51'4 7.6
2017-Apr-21 05:30N 25°60' W 079°54'4 7.2
2017-Apr-21 05:00N 26°02' W 079°58'4 7.0
2017-Apr-21 04:30N 26°04' W 080°01'4 8.2
2017-Apr-21 04:00N 26°05' W 080°05'3 5.5
2017-Apr-21 03:30N 26°04' W 080°07'0 0.6
2017-Apr-21 03:00N 26°04' W 080°08'0 0.0
2017-Apr-21 02:30N 26°04' W 080°08'0 0.0
2017-Apr-21 02:00N 26°04' W 080°08'0 0.0
2017-Apr-21 01:30N 26°04' W 080°08'0 0.0
2017-Apr-21 01:00N 26°04' W 080°08'0 0.0
2017-Apr-21 00:30N 26°04' W 080°08'0 0.0
2017-Apr-21 00:01N 26°04' W 080°08'1 2.2
2017-Apr-20 23:30N 26°04' W 080°07'3 5.6
2017-Apr-20 23:01N 26°04' W 080°04'510.6
2017-Apr-20 22:30N 26°02' W 079°58'611.0
2017-Apr-20 22:00N 25°59' W 079°53'510.7
2017-Apr-20 21:30N 25°57' W 079°48'510.5
2017-Apr-20 21:00N 25°55' W 079°42'611.7
2017-Apr-20 20:30N 25°52' W 079°37'10 0.9
2017-Apr-20 08:57N 25°43' W 079°32'4 8.5
2017-Apr-20 08:30N 25°46' W 079°36'4 8.2
2017-Apr-20 08:00N 25°48' W 079°39'4 7.7
2017-Apr-20 07:30N 25°50' W 079°43'4 7.4
2017-Apr-20 07:00N 25°53' W 079°46'4 7.1
2017-Apr-20 06:30N 25°55' W 079°49'4 7.1
2017-Apr-20 06:00N 25°57' W 079°52'3 6.8
2017-Apr-20 05:30N 25°59' W 079°55'3 7.0
2017-Apr-20 05:00N 26°01' W 079°58'4 8.2
2017-Apr-20 04:31N 26°03' W 080°02'4 8.0
2017-Apr-20 04:01N 26°06' W 080°06'2 3.9
2017-Apr-20 03:30N 26°04' W 080°07'1 1.8
2017-Apr-20 03:00N 26°04' W 080°08'0 0.0
2017-Apr-20 02:31N 26°04' W 080°08'0 0.0
2017-Apr-20 02:01N 26°04' W 080°08'0 0.0
2017-Apr-20 01:31N 26°04' W 080°08'0 0.0
2017-Apr-20 01:01N 26°04' W 080°08'0 0.0
2017-Apr-20 00:30N 26°04' W 080°08'0 0.3
2017-Apr-20 00:00N 26°04' W 080°08'3 5.2
2017-Apr-19 23:30N 26°06' W 080°06'5 9.8
2017-Apr-19 23:00N 26°04' W 080°01'  

Dump ship's entire track history